RAM1430 GMMN-GMAT
Flight info
| Callsign | RAM1430 |
|---|---|
| Flight time | N/A |
| Altitude | 21000 |
| Route | FOBAC UR722 MABAP UN869 ADM UR975 MOROX DCT TNN |
| Aircraft | B738/M-SDE3FGHIRWY/LB1 |
Departure
| Time | 2026-05-05 10:46 |
|---|---|
| Airport | Mohammed V International Airport (GMMN) |
Arrival
| Time | N/A |
|---|---|
| Airport | Tan Tan Airport (GMAT) |
| Time | Latitude | Longitude | Altitude | Speed | Heading |
|---|---|---|---|---|---|
| 2026-05-05 10:06 | 33.37357 | -7.58427 | 654 ft | 0 kts | 119° |
| 2026-05-05 10:39 | 33.37351 | -7.58414 | 654 ft | 7 kts | 119° |
| 2026-05-05 10:39 | 33.37330 | -7.58367 | 652 ft | 11 kts | 118° |
| 2026-05-05 10:40 | 33.37238 | -7.58316 | 652 ft | 11 kts | 164° |
| 2026-05-05 10:40 | 33.37165 | -7.58292 | 652 ft | 11 kts | 165° |
| 2026-05-05 10:40 | 33.37094 | -7.58268 | 652 ft | 10 kts | 165° |
| 2026-05-05 10:40 | 33.37048 | -7.58254 | 652 ft | 10 kts | 165° |
| 2026-05-05 10:41 | 33.36958 | -7.58234 | 652 ft | 10 kts | 198° |
| 2026-05-05 10:41 | 33.36929 | -7.58305 | 652 ft | 10 kts | 255° |
| 2026-05-05 10:41 | 33.36911 | -7.58387 | 654 ft | 11 kts | 255° |
| 2026-05-05 10:41 | 33.36893 | -7.58442 | 653 ft | 11 kts | 233° |
| 2026-05-05 10:42 | 33.36735 | -7.58425 | 652 ft | 13 kts | 164° |
| 2026-05-05 10:42 | 33.36616 | -7.58384 | 654 ft | 15 kts | 163° |
| 2026-05-05 10:42 | 33.36547 | -7.58360 | 654 ft | 16 kts | 164° |
| 2026-05-05 10:43 | 33.36384 | -7.58304 | 651 ft | 20 kts | 163° |
| 2026-05-05 10:43 | 33.36246 | -7.58256 | 651 ft | 21 kts | 163° |
| 2026-05-05 10:43 | 33.36151 | -7.58224 | 653 ft | 21 kts | 164° |
| 2026-05-05 10:43 | 33.35970 | -7.58162 | 651 ft | 20 kts | 164° |
| 2026-05-05 10:44 | 33.35882 | -7.58132 | 653 ft | 20 kts | 164° |
| 2026-05-05 10:44 | 33.35709 | -7.58073 | 651 ft | 19 kts | 163° |
| 2026-05-05 10:44 | 33.35629 | -7.58046 | 651 ft | 16 kts | 167° |
| 2026-05-05 10:44 | 33.35562 | -7.58129 | 651 ft | 15 kts | 255° |
| 2026-05-05 10:45 | 33.35533 | -7.58252 | 648 ft | 16 kts | 253° |
| 2026-05-05 10:45 | 33.35543 | -7.58371 | 645 ft | 16 kts | 320° |
| 2026-05-05 10:45 | 33.35584 | -7.58387 | 646 ft | 0 kts | 345° |
| 2026-05-05 10:45 | 33.35585 | -7.58387 | 646 ft | 1 kts | 345° |
| 2026-05-05 10:46 | 33.35678 | -7.58418 | 645 ft | 41 kts | 344° |
| 2026-05-05 10:46 | 33.36180 | -7.58590 | 645 ft | 107 kts | 344° |
| 2026-05-05 10:46 | 33.37062 | -7.58877 | 667 ft | 156 kts | 348° |
| 2026-05-05 10:46 | 33.38144 | -7.59191 | 1315 ft | 153 kts | 346° |
| 2026-05-05 10:47 | 33.39183 | -7.59559 | 2025 ft | 163 kts | 346° |
| 2026-05-05 10:47 | 33.40295 | -7.60083 | 2573 ft | 179 kts | 332° |
| 2026-05-05 10:47 | 33.41195 | -7.61256 | 2928 ft | 211 kts | 299° |
| 2026-05-05 10:47 | 33.41477 | -7.63067 | 3135 ft | 241 kts | 266° |
| 2026-05-05 10:48 | 33.40975 | -7.65064 | 3621 ft | 254 kts | 250° |
| 2026-05-05 10:48 | 33.40066 | -7.67596 | 4893 ft | 242 kts | 248° |
| 2026-05-05 10:48 | 33.39423 | -7.69433 | 5869 ft | 238 kts | 248° |
| 2026-05-05 10:48 | 33.38799 | -7.71282 | 6655 ft | 240 kts | 249° |
| 2026-05-05 10:49 | 33.38195 | -7.73120 | 7431 ft | 241 kts | 250° |
| 2026-05-05 10:49 | 33.37589 | -7.75007 | 8156 ft | 245 kts | 250° |
| 2026-05-05 10:49 | 33.36980 | -7.76928 | 8930 ft | 247 kts | 250° |
| 2026-05-05 10:49 | 33.36372 | -7.78856 | 9712 ft | 248 kts | 250° |
| 2026-05-05 10:50 | 33.35760 | -7.80800 | 10432 ft | 251 kts | 251° |
| 2026-05-05 10:50 | 33.35138 | -7.82758 | 11168 ft | 252 kts | 248° |
| 2026-05-05 10:50 | 33.34130 | -7.84494 | 11790 ft | 263 kts | 227° |
| 2026-05-05 10:50 | 33.32686 | -7.86016 | 11977 ft | 289 kts | 223° |
| 2026-05-05 10:51 | 33.31074 | -7.87604 | 12166 ft | 312 kts | 222° |
| 2026-05-05 10:51 | 33.29333 | -7.89302 | 12329 ft | 333 kts | 222° |
| 2026-05-05 10:51 | 33.27513 | -7.91082 | 12689 ft | 347 kts | 222° |
| 2026-05-05 10:51 | 33.25633 | -7.92930 | 13338 ft | 351 kts | 223° |
| 2026-05-05 10:52 | 33.23738 | -7.94800 | 14104 ft | 353 kts | 223° |
| 2026-05-05 10:52 | 33.21842 | -7.96677 | 14769 ft | 355 kts | 223° |
| 2026-05-05 10:52 | 33.19955 | -7.98550 | 15443 ft | 358 kts | 223° |
| 2026-05-05 10:52 | 33.18027 | -8.00464 | 16110 ft | 362 kts | 223° |
| 2026-05-05 10:53 | 33.16080 | -8.02396 | 16770 ft | 365 kts | 223° |
| 2026-05-05 10:53 | 33.14038 | -8.04235 | 17398 ft | 373 kts | 212° |
| 2026-05-05 10:53 | 33.12449 | -8.05065 | 17810 ft | 380 kts | 201° |
| 2026-05-05 10:53 | 33.09799 | -8.05596 | 18443 ft | 390 kts | 188° |
| 2026-05-05 10:54 | 33.07073 | -8.05756 | 19009 ft | 394 kts | 187° |
| 2026-05-05 10:54 | 33.04317 | -8.05875 | 19561 ft | 397 kts | 186° |
| 2026-05-05 10:54 | 33.01546 | -8.06004 | 20127 ft | 400 kts | 187° |
| 2026-05-05 10:54 | 32.98754 | -8.06160 | 20678 ft | 402 kts | 187° |
| 2026-05-05 10:55 | 32.95952 | -8.06333 | 21058 ft | 404 kts | 187° |
| 2026-05-05 10:55 | 32.93108 | -8.06522 | 21063 ft | 414 kts | 188° |
| 2026-05-05 10:55 | 32.90212 | -8.06890 | 21078 ft | 423 kts | 192° |
| 2026-05-05 10:55 | 32.87259 | -8.07395 | 21065 ft | 433 kts | 193° |
| 2026-05-05 10:56 | 32.84294 | -8.07931 | 21076 ft | 441 kts | 193° |
| 2026-05-05 10:56 | 32.81226 | -8.08472 | 21071 ft | 448 kts | 192° |
| 2026-05-05 10:56 | 32.78139 | -8.08989 | 21052 ft | 446 kts | 192° |
| 2026-05-05 10:56 | 32.75067 | -8.09489 | 21061 ft | 444 kts | 192° |
| 2026-05-05 10:57 | 32.72005 | -8.09984 | 21051 ft | 443 kts | 192° |
| 2026-05-05 10:57 | 32.68950 | -8.10480 | 21057 ft | 443 kts | 192° |
| 2026-05-05 10:57 | 32.65898 | -8.10979 | 21059 ft | 443 kts | 192° |
| 2026-05-05 10:57 | 32.62869 | -8.11477 | 21051 ft | 442 kts | 192° |
| 2026-05-05 10:58 | 32.59861 | -8.11967 | 21044 ft | 433 kts | 193° |
| 2026-05-05 10:58 | 32.56887 | -8.12451 | 21042 ft | 428 kts | 193° |
| 2026-05-05 10:58 | 32.53923 | -8.12937 | 21050 ft | 429 kts | 193° |
| 2026-05-05 10:58 | 32.50964 | -8.13423 | 21064 ft | 430 kts | 193° |
| 2026-05-05 10:59 | 32.47986 | -8.13912 | 21057 ft | 432 kts | 193° |
| 2026-05-05 10:59 | 32.45004 | -8.14400 | 21063 ft | 432 kts | 193° |
| 2026-05-05 10:59 | 32.42059 | -8.14881 | 21060 ft | 432 kts | 193° |
| 2026-05-05 10:59 | 32.39078 | -8.15367 | 21052 ft | 432 kts | 193° |
| 2026-05-05 11:00 | 32.36093 | -8.15852 | 21054 ft | 431 kts | 193° |
| 2026-05-05 11:00 | 32.33132 | -8.16333 | 21045 ft | 428 kts | 194° |
| 2026-05-05 11:00 | 32.30179 | -8.16812 | 21047 ft | 426 kts | 194° |
| 2026-05-05 11:00 | 32.27248 | -8.17290 | 21045 ft | 424 kts | 194° |
| 2026-05-05 11:01 | 32.24368 | -8.17757 | 21061 ft | 423 kts | 194° |
| 2026-05-05 11:01 | 32.21455 | -8.18231 | 21056 ft | 422 kts | 194° |
| 2026-05-05 11:01 | 32.18508 | -8.18710 | 21058 ft | 423 kts | 194° |
| 2026-05-05 11:01 | 32.15623 | -8.19180 | 21044 ft | 423 kts | 195° |
| 2026-05-05 11:02 | 32.12779 | -8.19939 | 21064 ft | 416 kts | 204° |
| 2026-05-05 11:02 | 32.10091 | -8.21178 | 21059 ft | 411 kts | 212° |
| 2026-05-05 11:02 | 32.07612 | -8.22819 | 21047 ft | 408 kts | 216° |
| 2026-05-05 11:02 | 32.05152 | -8.24503 | 21046 ft | 408 kts | 216° |
| 2026-05-05 11:03 | 32.02687 | -8.26184 | 21048 ft | 409 kts | 215° |
| 2026-05-05 11:03 | 32.00221 | -8.27856 | 21045 ft | 409 kts | 215° |
| 2026-05-05 11:03 | 31.97790 | -8.29497 | 21047 ft | 408 kts | 215° |
| 2026-05-05 11:03 | 31.95317 | -8.31161 | 21051 ft | 408 kts | 215° |
| 2026-05-05 11:04 | 31.92843 | -8.32821 | 21051 ft | 408 kts | 215° |
| 2026-05-05 11:04 | 31.90374 | -8.34474 | 21049 ft | 408 kts | 215° |
| 2026-05-05 11:04 | 31.87902 | -8.36129 | 21050 ft | 408 kts | 215° |
| 2026-05-05 11:04 | 31.85443 | -8.37773 | 21052 ft | 407 kts | 215° |
| 2026-05-05 11:05 | 31.83001 | -8.39404 | 21053 ft | 408 kts | 215° |
| 2026-05-05 11:05 | 31.80530 | -8.41054 | 21047 ft | 408 kts | 215° |
| 2026-05-05 11:05 | 31.78061 | -8.42702 | 21025 ft | 407 kts | 215° |
| 2026-05-05 11:05 | 31.75588 | -8.44351 | 21035 ft | 407 kts | 215° |
| 2026-05-05 11:06 | 31.73155 | -8.45972 | 21038 ft | 406 kts | 215° |
| 2026-05-05 11:06 | 31.70695 | -8.47611 | 21042 ft | 406 kts | 215° |
| 2026-05-05 11:06 | 31.68237 | -8.49247 | 21042 ft | 406 kts | 215° |
| 2026-05-05 11:06 | 31.65778 | -8.50884 | 21040 ft | 405 kts | 215° |
| 2026-05-05 11:07 | 31.63321 | -8.52518 | 21041 ft | 405 kts | 215° |
| 2026-05-05 11:07 | 31.60866 | -8.54149 | 21039 ft | 405 kts | 215° |
| 2026-05-05 11:07 | 31.58405 | -8.55783 | 21043 ft | 405 kts | 215° |
| 2026-05-05 11:07 | 31.55953 | -8.57411 | 21039 ft | 406 kts | 215° |
| 2026-05-05 11:08 | 31.53520 | -8.59025 | 21045 ft | 406 kts | 215° |
| 2026-05-05 11:08 | 31.51060 | -8.60656 | 21041 ft | 406 kts | 215° |
| 2026-05-05 11:08 | 31.48597 | -8.62287 | 21032 ft | 406 kts | 215° |
| 2026-05-05 11:08 | 31.46141 | -8.63914 | 21035 ft | 406 kts | 215° |
| 2026-05-05 11:09 | 31.43677 | -8.65544 | 21040 ft | 406 kts | 215° |
| 2026-05-05 11:09 | 31.41210 | -8.67176 | 21038 ft | 407 kts | 215° |
| 2026-05-05 11:09 | 31.38742 | -8.68807 | 21045 ft | 407 kts | 215° |
| 2026-05-05 11:09 | 31.36269 | -8.70441 | 21046 ft | 408 kts | 215° |
| 2026-05-05 11:10 | 31.33799 | -8.72071 | 21042 ft | 408 kts | 215° |
| 2026-05-05 11:10 | 31.31330 | -8.73699 | 21042 ft | 407 kts | 215° |
| 2026-05-05 11:10 | 31.28867 | -8.75322 | 21040 ft | 406 kts | 215° |
| 2026-05-05 11:10 | 31.26422 | -8.76934 | 21046 ft | 406 kts | 215° |
| 2026-05-05 11:11 | 31.23961 | -8.78554 | 21044 ft | 405 kts | 215° |
| 2026-05-05 11:11 | 31.21511 | -8.80166 | 21019 ft | 405 kts | 215° |
| 2026-05-05 11:11 | 31.19054 | -8.81781 | 21022 ft | 403 kts | 215° |
| 2026-05-05 11:11 | 31.16615 | -8.83383 | 21035 ft | 402 kts | 215° |
| 2026-05-05 11:12 | 31.14186 | -8.84973 | 21042 ft | 401 kts | 215° |
| 2026-05-05 11:12 | 31.11751 | -8.86574 | 21016 ft | 401 kts | 215° |
| 2026-05-05 11:12 | 31.09310 | -8.88178 | 21043 ft | 401 kts | 215° |
| 2026-05-05 11:12 | 31.06885 | -8.89770 | 21019 ft | 402 kts | 215° |
| 2026-05-05 11:13 | 31.04437 | -8.91377 | 21019 ft | 403 kts | 215° |
| 2026-05-05 11:13 | 31.02021 | -8.92959 | 21040 ft | 403 kts | 215° |
| 2026-05-05 11:13 | 30.99563 | -8.94569 | 21029 ft | 405 kts | 215° |
| 2026-05-05 11:13 | 30.97110 | -8.96175 | 21001 ft | 405 kts | 215° |
| 2026-05-05 11:14 | 30.94650 | -8.97782 | 21005 ft | 405 kts | 215° |
| 2026-05-05 11:14 | 30.92190 | -8.99389 | 20995 ft | 404 kts | 215° |
| 2026-05-05 11:14 | 30.89764 | -9.00972 | 21005 ft | 402 kts | 215° |
| 2026-05-05 11:15 | 30.84591 | -9.04345 | 21001 ft | 400 kts | 215° |
| 2026-05-05 11:15 | 30.82168 | -9.05925 | 21004 ft | 399 kts | 215° |
| 2026-05-05 11:15 | 30.79739 | -9.07508 | 20999 ft | 399 kts | 215° |
| 2026-05-05 11:15 | 30.77315 | -9.09087 | 21002 ft | 399 kts | 215° |
| 2026-05-05 11:16 | 30.74887 | -9.10667 | 21005 ft | 399 kts | 215° |
| 2026-05-05 11:16 | 30.72494 | -9.12224 | 20993 ft | 399 kts | 215° |
| 2026-05-05 11:16 | 30.70040 | -9.13819 | 20998 ft | 399 kts | 215° |
| 2026-05-05 11:16 | 30.67611 | -9.15397 | 21007 ft | 400 kts | 215° |
| 2026-05-05 11:17 | 30.65208 | -9.16958 | 20998 ft | 401 kts | 215° |
| 2026-05-05 11:17 | 30.62767 | -9.18541 | 20975 ft | 398 kts | 214° |
| 2026-05-05 11:17 | 30.60370 | -9.20093 | 20973 ft | 392 kts | 215° |
| 2026-05-05 11:17 | 30.57981 | -9.21640 | 20990 ft | 394 kts | 214° |
| 2026-05-05 11:18 | 30.55607 | -9.23177 | 20992 ft | 396 kts | 214° |
| 2026-05-05 11:18 | 30.53977 | -9.24233 | 20992 ft | 396 kts | 214° |
| 2026-05-05 11:18 | 30.51569 | -9.25793 | 20997 ft | 396 kts | 214° |
| 2026-05-05 11:18 | 30.48380 | -9.27856 | 20992 ft | 396 kts | 214° |
| 2026-05-05 11:19 | 30.45979 | -9.29409 | 20992 ft | 395 kts | 214° |
| 2026-05-05 11:19 | 30.43587 | -9.30954 | 20997 ft | 394 kts | 214° |
| 2026-05-05 11:19 | 30.41962 | -9.32003 | 20996 ft | 394 kts | 214° |
| 2026-05-05 11:19 | 30.39596 | -9.33530 | 20990 ft | 393 kts | 214° |
| 2026-05-05 11:20 | 30.37204 | -9.35074 | 20994 ft | 393 kts | 214° |
| 2026-05-05 11:20 | 30.34813 | -9.36614 | 20994 ft | 393 kts | 214° |
| 2026-05-05 11:20 | 30.32407 | -9.38146 | 20998 ft | 393 kts | 213° |
| 2026-05-05 11:20 | 30.29884 | -9.39428 | 20995 ft | 399 kts | 207° |
| 2026-05-05 11:21 | 30.27307 | -9.40539 | 20996 ft | 401 kts | 206° |